createdAt,value
2022-08-23T00:00:16.000Z,0.0
2022-08-23T00:00:44.000Z,0.0
2022-08-23T00:01:07.000Z,0.0
2022-08-23T00:01:37.000Z,0.0
2022-08-23T00:02:12.000Z,0.0
2022-08-23T00:02:41.000Z,0.0
2022-08-23T00:03:11.000Z,0.0
2022-08-23T00:03:46.000Z,0.0
2022-08-23T00:04:16.000Z,0.0
2022-08-23T00:04:43.000Z,0.0
2022-08-23T00:05:06.000Z,0.0
2022-08-23T00:05:36.000Z,0.0
2022-08-23T00:06:11.000Z,0.0
2022-08-23T00:06:42.000Z,0.0
2022-08-23T00:07:11.000Z,0.0
2022-08-23T00:07:46.000Z,0.0
2022-08-23T00:08:16.000Z,0.0
2022-08-23T00:08:44.000Z,0.0
2022-08-23T00:09:21.000Z,0.0
2022-08-23T00:09:44.000Z,0.0
2022-08-23T00:10:11.000Z,0.0
2022-08-23T00:10:41.000Z,0.0
2022-08-23T00:11:11.000Z,0.0
2022-08-23T00:11:46.000Z,0.0
2022-08-23T00:12:16.000Z,0.0
2022-08-23T00:12:44.000Z,0.0
2022-08-23T00:13:06.000Z,0.0
2022-08-23T00:13:36.000Z,0.0
2022-08-23T00:14:11.000Z,0.0
2022-08-23T00:14:41.000Z,0.0
2022-08-23T00:15:12.000Z,0.0
2022-08-23T00:15:46.000Z,0.0
2022-08-23T00:16:16.000Z,0.0
2022-08-23T00:16:44.000Z,0.0
2022-08-23T00:17:06.000Z,0.0
2022-08-23T00:17:36.000Z,0.0
2022-08-23T00:18:11.000Z,0.0
2022-08-23T00:18:41.000Z,0.0
2022-08-23T00:19:16.000Z,0.0
2022-08-23T00:19:56.000Z,0.0
2022-08-23T00:20:19.000Z,0.0
2022-08-23T00:20:46.000Z,0.0
2022-08-23T00:21:11.000Z,0.0
2022-08-23T00:21:36.000Z,0.0
2022-08-23T00:22:11.000Z,0.0
2022-08-23T00:22:42.000Z,0.0
2022-08-23T00:23:11.000Z,0.0
2022-08-23T00:23:46.000Z,0.0
2022-08-23T00:24:16.000Z,0.0
2022-08-23T00:24:44.000Z,0.0
2022-08-23T00:25:06.000Z,0.0
2022-08-23T00:25:36.000Z,0.0
2022-08-23T00:26:12.000Z,0.0
2022-08-23T00:26:41.000Z,0.0
2022-08-23T00:27:12.000Z,0.0
2022-08-23T00:27:46.000Z,0.0
2022-08-23T00:28:16.000Z,0.0
2022-08-23T00:28:44.000Z,0.0
2022-08-23T00:29:06.000Z,0.0
2022-08-23T00:29:37.000Z,0.0
2022-08-23T00:30:11.000Z,0.0
2022-08-23T00:30:41.000Z,0.0
2022-08-23T00:31:21.000Z,0.0
2022-08-23T00:31:47.000Z,0.0
2022-08-23T00:32:19.000Z,0.0
2022-08-23T00:32:44.000Z,0.0
2022-08-23T00:33:02.000Z,0.0
2022-08-23T00:33:29.000Z,0.0
2022-08-23T00:33:52.000Z,0.0
2022-08-23T00:34:26.000Z,0.0
2022-08-23T00:34:49.000Z,0.0
2022-08-23T00:35:16.000Z,0.0
2022-08-23T00:35:56.000Z,0.0
2022-08-23T00:36:36.000Z,0.0
2022-08-23T00:36:53.000Z,0.0
2022-08-23T00:37:18.000Z,0.0
2022-08-23T00:37:37.000Z,0.0
2022-08-23T00:38:11.000Z,0.0
2022-08-23T00:38:41.000Z,0.0
2022-08-23T00:39:11.000Z,0.0
2022-08-23T00:39:46.000Z,0.0
2022-08-23T00:40:16.000Z,0.0
2022-08-23T00:40:44.000Z,0.0
2022-08-23T00:41:06.000Z,0.0
2022-08-23T00:41:36.000Z,0.0
2022-08-23T00:42:11.000Z,0.0
2022-08-23T00:42:41.000Z,0.0
2022-08-23T00:43:12.000Z,0.0
2022-08-23T00:43:46.000Z,0.0
2022-08-23T00:44:16.000Z,0.0
2022-08-23T00:44:44.000Z,0.0
2022-08-23T00:45:06.000Z,0.0
2022-08-23T00:45:36.000Z,0.0
2022-08-23T00:46:11.000Z,0.0
2022-08-23T00:46:42.000Z,0.0
2022-08-23T00:47:12.000Z,0.0
2022-08-23T00:47:46.000Z,0.0
2022-08-23T00:48:19.000Z,0.0
2022-08-23T00:48:44.000Z,0.0
2022-08-23T00:49:02.000Z,0.0
2022-08-23T00:49:29.000Z,0.0
2022-08-23T00:49:53.000Z,0.0
2022-08-23T00:50:26.000Z,0.0
2022-08-23T00:50:44.000Z,0.0
2022-08-23T00:51:11.000Z,0.0
2022-08-23T00:51:46.000Z,0.0
2022-08-23T00:52:17.000Z,0.0
2022-08-23T00:52:44.000Z,0.0
2022-08-23T00:53:06.000Z,0.0
2022-08-23T00:53:37.000Z,0.0
2022-08-23T00:54:11.000Z,0.0
2022-08-23T00:54:41.000Z,0.0
2022-08-23T00:55:12.000Z,0.0
2022-08-23T00:55:46.000Z,0.0
2022-08-23T00:56:16.000Z,0.0
2022-08-23T00:56:44.000Z,0.0
2022-08-23T00:57:06.000Z,0.0
2022-08-23T00:57:36.000Z,0.0
2022-08-23T00:58:11.000Z,0.0
2022-08-23T00:58:41.000Z,0.0
2022-08-23T00:59:11.000Z,0.0
2022-08-23T00:59:46.000Z,0.0
2022-08-23T01:00:16.000Z,0.0
2022-08-23T01:00:44.000Z,0.0
2022-08-23T01:01:06.000Z,0.0
2022-08-23T01:01:36.000Z,0.0
2022-08-23T01:02:11.000Z,0.0
2022-08-23T01:02:38.000Z,0.0
2022-08-23T01:03:11.000Z,0.0
2022-08-23T01:03:56.000Z,1.12658
2022-08-23T01:04:19.000Z,0.32188
2022-08-23T01:04:46.000Z,0.0
2022-08-23T01:05:11.000Z,0.0
2022-08-23T01:05:37.000Z,0.32188
2022-08-23T01:06:11.000Z,0.0
2022-08-23T01:06:41.000Z,0.0
2022-08-23T01:07:15.000Z,0.0
2022-08-23T01:07:46.000Z,0.32188
2022-08-23T01:08:16.000Z,0.0
2022-08-23T01:08:44.000Z,0.0
2022-08-23T01:09:07.000Z,0.0
2022-08-23T01:09:36.000Z,0.0
2022-08-23T01:10:11.000Z,0.0
2022-08-23T01:10:42.000Z,0.0
2022-08-23T01:11:11.000Z,0.0
2022-08-23T01:11:46.000Z,0.0
2022-08-23T01:12:16.000Z,0.0
2022-08-23T01:12:44.000Z,0.0
2022-08-23T01:13:06.000Z,1.12658
2022-08-23T01:13:36.000Z,0.64376
2022-08-23T01:14:12.000Z,0.0
2022-08-23T01:14:42.000Z,0.0
2022-08-23T01:15:11.000Z,0.0
2022-08-23T01:15:56.000Z,0.0
2022-08-23T01:16:16.000Z,0.0
2022-08-23T01:16:44.000Z,0.0
2022-08-23T01:17:06.000Z,0.0
2022-08-23T01:17:36.000Z,0.0
2022-08-23T01:18:11.000Z,0.0
2022-08-23T01:18:42.000Z,0.0
2022-08-23T01:19:11.000Z,0.0
2022-08-23T01:19:47.000Z,0.0
2022-08-23T01:20:16.000Z,0.0
2022-08-23T01:20:44.000Z,0.0
2022-08-23T01:21:07.000Z,0.0
2022-08-23T01:21:36.000Z,0.0
2022-08-23T01:22:12.000Z,0.0
2022-08-23T01:22:41.000Z,0.0
2022-08-23T01:23:11.000Z,0.0
2022-08-23T01:23:46.000Z,0.0
2022-08-23T01:24:16.000Z,0.0
2022-08-23T01:24:44.000Z,0.0
2022-08-23T01:25:06.000Z,0.0
2022-08-23T01:25:36.000Z,0.0
2022-08-23T01:26:21.000Z,0.0
2022-08-23T01:26:42.000Z,0.0
2022-08-23T01:27:11.000Z,1.44846
2022-08-23T01:27:46.000Z,0.0
2022-08-23T01:28:16.000Z,0.0
2022-08-23T01:28:44.000Z,0.0
2022-08-23T01:29:06.000Z,0.0
2022-08-23T01:29:36.000Z,0.0
2022-08-23T01:30:11.000Z,0.0
2022-08-23T01:30:41.000Z,0.0
2022-08-23T01:31:12.000Z,0.0
2022-08-23T01:31:46.000Z,0.0
2022-08-23T01:32:16.000Z,0.0
2022-08-23T01:32:44.000Z,0.0
2022-08-23T01:33:07.000Z,2.09222
2022-08-23T01:33:36.000Z,1.12658
2022-08-23T01:34:11.000Z,0.0
2022-08-23T01:34:41.000Z,0.0
2022-08-23T01:35:12.000Z,0.32188
2022-08-23T01:35:46.000Z,0.32188
2022-08-23T01:36:16.000Z,0.0
2022-08-23T01:36:51.000Z,0.0
2022-08-23T01:37:18.000Z,0.0
2022-08-23T01:37:46.000Z,0.0
2022-08-23T01:38:11.000Z,0.0
2022-08-23T01:38:38.000Z,0.0
2022-08-23T01:39:02.000Z,0.0
2022-08-23T01:39:29.000Z,0.0
2022-08-23T01:39:56.000Z,0.0
2022-08-23T01:40:26.000Z,0.0
2022-08-23T01:40:53.000Z,0.0
2022-08-23T01:41:18.000Z,0.0
2022-08-23T01:41:46.000Z,0.0
2022-08-23T01:42:11.000Z,0.0
2022-08-23T01:42:41.000Z,0.0
2022-08-23T01:43:11.000Z,0.0
2022-08-23T01:43:46.000Z,0.0
2022-08-23T01:44:16.000Z,0.0
2022-08-23T01:44:44.000Z,0.0
2022-08-23T01:45:06.000Z,0.0
2022-08-23T01:45:36.000Z,0.0
2022-08-23T01:46:11.000Z,0.0
2022-08-23T01:46:41.000Z,0.0
2022-08-23T01:47:11.000Z,0.0
2022-08-23T01:47:46.000Z,0.0
2022-08-23T01:48:16.000Z,0.0
2022-08-23T01:48:44.000Z,0.0
2022-08-23T01:49:06.000Z,0.0
2022-08-23T01:49:36.000Z,0.0
2022-08-23T01:50:11.000Z,0.0
2022-08-23T01:50:41.000Z,0.0
2022-08-23T01:51:11.000Z,0.0
2022-08-23T01:51:47.000Z,0.0
2022-08-23T01:52:17.000Z,0.0
2022-08-23T01:52:44.000Z,0.0
2022-08-23T01:53:07.000Z,0.0
2022-08-23T01:53:34.000Z,0.0
2022-08-23T01:54:01.000Z,0.0
2022-08-23T01:54:28.000Z,0.0
2022-08-23T01:54:56.000Z,0.0
2022-08-23T01:55:31.000Z,0.0
2022-08-23T01:55:48.000Z,0.0
2022-08-23T01:56:19.000Z,0.0
2022-08-23T01:56:44.000Z,0.0
2022-08-23T01:57:02.000Z,0.0
2022-08-23T01:57:29.000Z,0.0
2022-08-23T01:57:52.000Z,0.0
2022-08-23T01:58:26.000Z,0.0
2022-08-23T01:58:49.000Z,0.0
2022-08-23T01:59:11.000Z,0.0
2022-08-23T01:59:46.000Z,0.0
2022-08-23T02:00:16.000Z,0.0
2022-08-23T02:00:44.000Z,0.0
2022-08-23T02:01:06.000Z,1.7703400000000002
2022-08-23T02:01:36.000Z,1.12658
2022-08-23T02:02:06.000Z,0.0
2022-08-23T02:02:41.000Z,0.32188
2022-08-23T02:03:12.000Z,0.0
2022-08-23T02:03:46.000Z,0.0
2022-08-23T02:04:31.000Z,0.0
2022-08-23T02:05:06.000Z,0.0
2022-08-23T02:05:36.000Z,0.0
2022-08-23T02:06:12.000Z,0.0
2022-08-23T02:06:42.000Z,0.0
2022-08-23T02:07:11.000Z,0.0
2022-08-23T02:07:46.000Z,0.32188
2022-08-23T02:08:16.000Z,0.64376
2022-08-23T02:08:43.000Z,0.0
2022-08-23T02:09:07.000Z,0.0
2022-08-23T02:09:34.000Z,0.0
2022-08-23T02:09:52.000Z,0.0
2022-08-23T02:10:27.000Z,0.0
2022-08-23T02:10:48.000Z,0.0
2022-08-23T02:11:11.000Z,0.0
2022-08-23T02:11:47.000Z,0.0
2022-08-23T02:12:16.000Z,0.0
2022-08-23T02:12:46.000Z,0.0
2022-08-23T02:13:21.000Z,0.0
2022-08-23T02:13:43.000Z,0.0
2022-08-23T02:14:11.000Z,0.0
2022-08-23T02:14:41.000Z,0.0
2022-08-23T02:15:12.000Z,0.0
2022-08-23T02:15:46.000Z,0.0
2022-08-23T02:16:16.000Z,0.0
2022-08-23T02:16:43.000Z,0.0
2022-08-23T02:17:06.000Z,0.0
2022-08-23T02:17:36.000Z,0.0
2022-08-23T02:18:06.000Z,0.0
2022-08-23T02:18:41.000Z,0.0
2022-08-23T02:19:11.000Z,0.0
2022-08-23T02:19:46.000Z,0.0
2022-08-23T02:20:19.000Z,0.0
2022-08-23T02:20:43.000Z,0.0
2022-08-23T02:21:06.000Z,0.0
2022-08-23T02:21:36.000Z,0.0
2022-08-23T02:22:11.000Z,0.0
2022-08-23T02:22:41.000Z,0.0
2022-08-23T02:23:11.000Z,0.0
2022-08-23T02:23:46.000Z,0.0
2022-08-23T02:24:16.000Z,0.0
2022-08-23T02:24:43.000Z,0.0
2022-08-23T02:25:06.000Z,0.0
2022-08-23T02:25:36.000Z,0.0
2022-08-23T02:26:11.000Z,0.0
2022-08-23T02:26:41.000Z,0.0
2022-08-23T02:27:11.000Z,0.0
2022-08-23T02:27:46.000Z,0.0
2022-08-23T02:28:16.000Z,0.0
2022-08-23T02:28:46.000Z,0.0
2022-08-23T02:29:19.000Z,0.0
2022-08-23T02:29:43.000Z,0.0
2022-08-23T02:30:11.000Z,0.0
2022-08-23T02:30:43.000Z,0.0
2022-08-23T02:31:16.000Z,0.0
2022-08-23T02:31:46.000Z,0.0
2022-08-23T02:32:17.000Z,0.0
2022-08-23T02:32:43.000Z,0.0
2022-08-23T02:33:06.000Z,0.0
2022-08-23T02:33:36.000Z,0.0
2022-08-23T02:34:06.000Z,0.0
2022-08-23T02:34:41.000Z,0.0
2022-08-23T02:35:11.000Z,0.0
2022-08-23T02:35:46.000Z,0.0
2022-08-23T02:36:16.000Z,0.0
2022-08-23T02:36:46.000Z,0.0
2022-08-23T02:37:19.000Z,0.0
2022-08-23T02:37:43.000Z,0.0
2022-08-23T02:38:06.000Z,0.0
2022-08-23T02:38:27.000Z,0.0
2022-08-23T02:38:48.000Z,0.0
2022-08-23T02:39:11.000Z,0.0
2022-08-23T02:39:46.000Z,0.0
2022-08-23T02:40:16.000Z,0.0
2022-08-23T02:40:46.000Z,0.0
2022-08-23T02:41:02.000Z,0.0
2022-08-23T02:41:36.000Z,0.0
2022-08-23T02:42:06.000Z,0.0
2022-08-23T02:42:41.000Z,0.0
2022-08-23T02:43:11.000Z,0.0
2022-08-23T02:43:47.000Z,0.0
2022-08-23T02:44:16.000Z,0.0
2022-08-23T02:44:46.000Z,0.0
2022-08-23T02:45:19.000Z,0.0
2022-08-23T02:45:43.000Z,0.0
2022-08-23T02:46:06.000Z,0.0
2022-08-23T02:46:41.000Z,0.0
2022-08-23T02:47:11.000Z,0.0
2022-08-23T02:47:47.000Z,0.0
2022-08-23T02:48:17.000Z,0.0
2022-08-23T02:48:46.000Z,0.0
2022-08-23T02:49:19.000Z,0.0
2022-08-23T02:49:43.000Z,0.0
2022-08-23T02:50:06.000Z,0.0
2022-08-23T02:50:26.000Z,0.0
2022-08-23T02:50:48.000Z,0.0
2022-08-23T02:51:11.000Z,0.0
2022-08-23T02:51:46.000Z,0.0
2022-08-23T02:52:16.000Z,0.0
2022-08-23T02:52:56.000Z,0.0
2022-08-23T02:53:19.000Z,0.0
2022-08-23T02:53:43.000Z,0.0
2022-08-23T02:54:06.000Z,0.0
2022-08-23T02:54:26.000Z,0.0
2022-08-23T02:54:48.000Z,0.0
2022-08-23T02:55:11.000Z,0.0
2022-08-23T02:55:47.000Z,0.0
2022-08-23T02:56:16.000Z,0.0
2022-08-23T02:56:46.000Z,0.0
2022-08-23T02:57:02.000Z,0.0
2022-08-23T02:57:19.000Z,0.0
2022-08-23T02:57:43.000Z,0.0
2022-08-23T02:58:06.000Z,0.0
2022-08-23T02:58:26.000Z,0.0
2022-08-23T02:58:48.000Z,0.0
2022-08-23T02:59:11.000Z,0.0
2022-08-23T02:59:46.000Z,0.0
2022-08-23T03:00:16.000Z,0.0
2022-08-23T03:00:46.000Z,0.0
2022-08-23T03:01:02.000Z,0.0
2022-08-23T03:01:19.000Z,0.0
2022-08-23T03:01:43.000Z,0.0
2022-08-23T03:02:06.000Z,0.0
2022-08-23T03:02:27.000Z,0.0
2022-08-23T03:02:48.000Z,0.0
2022-08-23T03:03:11.000Z,0.0
2022-08-23T03:03:46.000Z,0.0
2022-08-23T03:04:16.000Z,0.0
2022-08-23T03:04:46.000Z,0.0
2022-08-23T03:05:02.000Z,0.0
2022-08-23T03:05:19.000Z,0.0
2022-08-23T03:05:43.000Z,0.0
2022-08-23T03:06:06.000Z,0.0
2022-08-23T03:06:26.000Z,0.0
2022-08-23T03:06:48.000Z,0.0
2022-08-23T03:07:11.000Z,0.0
2022-08-23T03:07:46.000Z,0.0
2022-08-23T03:08:16.000Z,0.0
2022-08-23T03:08:46.000Z,0.0
2022-08-23T03:09:02.000Z,0.0
2022-08-23T03:09:19.000Z,0.0
2022-08-23T03:09:43.000Z,0.0
2022-08-23T03:10:06.000Z,0.0
2022-08-23T03:10:26.000Z,0.0
2022-08-23T03:10:48.000Z,0.0
2022-08-23T03:11:11.000Z,0.0
2022-08-23T03:11:46.000Z,0.0
2022-08-23T03:12:16.000Z,0.0
2022-08-23T03:12:46.000Z,0.0
2022-08-23T03:13:02.000Z,0.0
2022-08-23T03:13:19.000Z,0.0
2022-08-23T03:13:43.000Z,0.0
2022-08-23T03:14:08.000Z,0.0
2022-08-23T03:14:38.000Z,0.0
2022-08-23T03:15:02.000Z,0.0
2022-08-23T03:15:27.000Z,0.0
2022-08-23T03:15:46.000Z,0.32188
2022-08-23T03:16:17.000Z,0.0
2022-08-23T03:16:46.000Z,0.0
2022-08-23T03:17:02.000Z,0.0
2022-08-23T03:17:19.000Z,0.0
2022-08-23T03:17:43.000Z,0.0
2022-08-23T03:18:06.000Z,0.32188
2022-08-23T03:18:27.000Z,0.0
2022-08-23T03:18:48.000Z,0.0
2022-08-23T03:19:11.000Z,0.0
2022-08-23T03:19:46.000Z,0.0
2022-08-23T03:20:16.000Z,0.0
2022-08-23T03:20:46.000Z,0.0
2022-08-23T03:21:02.000Z,0.0
2022-08-23T03:21:19.000Z,0.0
2022-08-23T03:21:43.000Z,0.0
2022-08-23T03:22:06.000Z,0.0
2022-08-23T03:22:26.000Z,0.0
2022-08-23T03:22:48.000Z,0.0
2022-08-23T03:23:11.000Z,0.32188
2022-08-23T03:23:46.000Z,0.0
2022-08-23T03:24:16.000Z,0.0
2022-08-23T03:24:46.000Z,0.0
2022-08-23T03:25:28.000Z,0.0
2022-08-23T03:25:51.000Z,0.0
2022-08-23T03:26:26.000Z,0.64376
2022-08-23T03:26:48.000Z,1.44846
2022-08-23T03:27:12.000Z,0.0
2022-08-23T03:27:46.000Z,0.0
2022-08-23T03:28:16.000Z,0.0
2022-08-23T03:28:46.000Z,0.0
2022-08-23T03:29:20.000Z,0.0
2022-08-23T03:29:43.000Z,0.0
2022-08-23T03:30:06.000Z,0.0
2022-08-23T03:30:41.000Z,0.0
2022-08-23T03:31:11.000Z,0.0
2022-08-23T03:31:47.000Z,0.0
2022-08-23T03:32:17.000Z,0.0
2022-08-23T03:32:46.000Z,0.0
2022-08-23T03:33:19.000Z,0.0
2022-08-23T03:33:43.000Z,0.0
2022-08-23T03:34:07.000Z,0.0
2022-08-23T03:34:41.000Z,0.0
2022-08-23T03:35:11.000Z,0.0
2022-08-23T03:35:56.000Z,0.0
2022-08-23T03:36:20.000Z,0.0
2022-08-23T03:36:46.000Z,0.0
2022-08-23T03:37:19.000Z,0.0
2022-08-23T03:37:43.000Z,0.0
2022-08-23T03:38:11.000Z,0.0
2022-08-23T03:38:38.000Z,0.0
2022-08-23T03:38:56.000Z,0.0
2022-08-23T03:39:31.000Z,0.0
2022-08-23T03:39:48.000Z,0.32188
2022-08-23T03:40:19.000Z,0.0
2022-08-23T03:40:43.000Z,0.32188
2022-08-23T03:41:02.000Z,0.0
2022-08-23T03:41:28.000Z,0.0
2022-08-23T03:41:52.000Z,0.0
2022-08-23T03:42:26.000Z,0.0
2022-08-23T16:03:26.000Z,3.5406800000000005
2022-08-23T16:03:46.000Z,2.09222
2022-08-23T16:04:16.000Z,2.89692
2022-08-23T16:04:46.000Z,4.66726
2022-08-23T16:05:19.000Z,1.44846
2022-08-23T16:05:43.000Z,4.3453800000000005
2022-08-23T16:06:06.000Z,5.47196
2022-08-23T16:06:41.000Z,2.09222
2022-08-23T16:07:11.000Z,4.98914
2022-08-23T16:07:46.000Z,2.57504
2022-08-23T16:08:16.000Z,2.09222
2022-08-23T16:08:46.000Z,1.7703400000000002
2022-08-23T16:09:19.000Z,1.12658
2022-08-23T16:09:43.000Z,0.0
2022-08-23T16:10:06.000Z,1.44846
2022-08-23T16:10:41.000Z,2.09222
2022-08-23T16:11:11.000Z,1.44846
2022-08-23T16:11:46.000Z,5.47196
2022-08-23T16:12:17.000Z,4.0235
2022-08-23T16:12:46.000Z,1.7703400000000002
2022-08-23T16:13:19.000Z,2.57504
2022-08-23T16:13:43.000Z,1.7703400000000002
2022-08-23T16:14:07.000Z,1.44846
2022-08-23T16:14:42.000Z,1.7703400000000002
2022-08-23T16:15:11.000Z,2.57504
2022-08-23T16:15:46.000Z,5.47196
2022-08-23T16:16:16.000Z,2.09222
2022-08-23T16:16:46.000Z,1.12658
2022-08-23T16:17:19.000Z,0.64376
2022-08-23T16:17:43.000Z,0.0
2022-08-23T16:18:11.000Z,0.32188
2022-08-23T16:18:51.000Z,1.12658
2022-08-23T16:19:14.000Z,0.64376
2022-08-23T16:19:41.000Z,0.32188
2022-08-23T16:20:11.000Z,0.32188
2022-08-23T16:20:35.000Z,1.12658
2022-08-23T16:21:01.000Z,2.89692
2022-08-23T16:21:28.000Z,4.0235
2022-08-23T16:21:52.000Z,2.57504
2022-08-23T16:22:26.000Z,1.7703400000000002
2022-08-23T16:22:48.000Z,0.64376
2022-08-23T16:23:11.000Z,1.12658
2022-08-23T16:23:46.000Z,0.64376
2022-08-23T16:24:16.000Z,1.12658
2022-08-23T16:24:46.000Z,2.57504
2022-08-23T16:25:19.000Z,0.0
2022-08-23T16:25:43.000Z,0.32188
2022-08-23T16:26:06.000Z,2.09222
2022-08-23T16:26:41.000Z,1.12658
2022-08-23T16:27:11.000Z,3.2188
2022-08-23T16:27:46.000Z,4.98914
2022-08-23T16:28:17.000Z,2.89692
2022-08-23T16:28:46.000Z,2.09222
2022-08-23T16:29:19.000Z,2.89692
2022-08-23T16:29:43.000Z,1.44846
2022-08-23T16:30:06.000Z,2.89692
2022-08-23T16:30:43.000Z,1.44846
2022-08-23T16:31:09.000Z,2.09222
2022-08-23T16:31:36.000Z,2.89692
2022-08-23T16:32:03.000Z,2.89692
2022-08-23T16:32:29.000Z,2.89692
2022-08-23T16:32:47.000Z,2.09222
2022-08-23T16:33:19.000Z,2.89692
2022-08-23T16:33:43.000Z,4.0235
2022-08-23T16:34:06.000Z,1.7703400000000002
2022-08-23T16:34:41.000Z,3.5406800000000005
2022-08-23T16:35:11.000Z,1.44846
2022-08-23T16:35:46.000Z,2.89692
2022-08-23T16:36:17.000Z,6.92042
2022-08-23T16:36:46.000Z,7.2423
2022-08-23T16:37:19.000Z,2.09222
2022-08-23T16:37:43.000Z,1.12658
2022-08-23T16:38:06.000Z,2.09222
2022-08-23T16:38:41.000Z,0.64376
2022-08-23T16:39:11.000Z,2.89692
2022-08-23T16:39:46.000Z,1.44846
2022-08-23T16:40:16.000Z,0.32188
2022-08-23T16:40:56.000Z,1.12658
2022-08-23T16:41:20.000Z,1.44846
2022-08-23T16:41:43.000Z,2.89692
2022-08-23T16:42:06.000Z,3.5406800000000005
2022-08-23T16:42:41.000Z,3.5406800000000005
2022-08-23T16:43:12.000Z,2.57504
2022-08-23T16:43:46.000Z,1.44846
2022-08-23T16:44:16.000Z,4.66726
2022-08-23T16:44:46.000Z,4.3453800000000005
2022-08-23T16:45:19.000Z,5.79384
2022-08-23T16:45:43.000Z,5.47196
2022-08-23T16:46:06.000Z,5.79384
2022-08-23T16:46:41.000Z,5.47196
2022-08-23T16:47:11.000Z,4.66726
2022-08-23T16:47:46.000Z,2.89692
2022-08-23T16:48:16.000Z,4.66726
2022-08-23T16:48:46.000Z,2.09222
2022-08-23T16:49:19.000Z,2.89692
2022-08-23T16:49:43.000Z,2.89692
2022-08-23T16:50:06.000Z,2.89692
2022-08-23T16:50:41.000Z,4.66726
2022-08-23T16:51:11.000Z,6.4376
2022-08-23T16:51:46.000Z,1.7703400000000002
2022-08-23T16:52:16.000Z,1.7703400000000002
2022-08-23T16:52:46.000Z,2.09222
2022-08-23T16:53:19.000Z,0.64376
2022-08-23T16:53:43.000Z,1.44846
2022-08-23T16:54:06.000Z,1.12658
2022-08-23T16:54:41.000Z,2.09222
2022-08-23T16:55:12.000Z,4.3453800000000005
2022-08-23T16:55:46.000Z,1.12658
2022-08-23T16:56:17.000Z,3.5406800000000005
2022-08-23T16:56:47.000Z,1.44846
2022-08-23T16:57:22.000Z,1.44846
2022-08-23T16:57:43.000Z,1.12658
2022-08-23T16:58:06.000Z,2.09222
2022-08-23T16:58:41.000Z,4.0235
2022-08-23T16:59:11.000Z,2.89692
2022-08-23T16:59:46.000Z,1.44846
2022-08-23T17:00:16.000Z,2.89692
2022-08-23T17:00:46.000Z,5.47196
2022-08-23T17:01:19.000Z,2.09222
2022-08-23T17:01:43.000Z,3.2188
2022-08-23T17:02:06.000Z,1.7703400000000002
2022-08-23T17:02:41.000Z,3.5406800000000005
2022-08-23T17:03:11.000Z,4.66726
2022-08-23T17:03:46.000Z,5.47196
2022-08-23T17:04:16.000Z,4.0235
2022-08-23T17:04:46.000Z,4.0235
2022-08-23T17:05:19.000Z,1.12658
2022-08-23T17:05:46.000Z,3.2188
2022-08-23T17:06:09.000Z,1.12658
2022-08-23T17:06:37.000Z,2.09222
2022-08-23T17:07:02.000Z,1.44846
2022-08-23T17:07:27.000Z,1.44846
2022-08-23T17:07:56.000Z,2.09222
2022-08-23T17:08:19.000Z,3.2188
2022-08-23T17:08:46.000Z,4.0235
2022-08-23T17:09:19.000Z,3.5406800000000005
2022-08-23T17:09:43.000Z,4.98914
2022-08-23T17:10:11.000Z,2.09222
2022-08-23T17:10:41.000Z,0.64376
2022-08-23T17:11:11.000Z,0.32188
2022-08-23T17:11:46.000Z,0.0
2022-08-23T17:12:16.000Z,0.0
2022-08-23T17:12:46.000Z,0.0
2022-08-23T17:13:19.000Z,3.2188
2022-08-23T17:13:44.000Z,3.5406800000000005
2022-08-23T17:14:06.000Z,5.47196
2022-08-23T17:14:41.000Z,1.7703400000000002
2022-08-23T17:15:11.000Z,1.44846
2022-08-23T17:15:46.000Z,2.09222
2022-08-23T17:16:16.000Z,2.09222
2022-08-23T17:16:46.000Z,2.09222
2022-08-23T17:17:19.000Z,1.7703400000000002
2022-08-23T17:17:43.000Z,1.7703400000000002
2022-08-23T17:18:06.000Z,4.0235
2022-08-23T17:18:51.000Z,4.0235
2022-08-23T17:19:31.000Z,6.11572
2022-08-23T17:20:01.000Z,1.44846
2022-08-23T17:20:31.000Z,4.3453800000000005
2022-08-23T17:21:02.000Z,2.89692
2022-08-23T17:21:36.000Z,6.11572
2022-08-23T17:22:06.000Z,3.2188
2022-08-23T17:22:41.000Z,0.0
2022-08-23T17:23:11.000Z,0.0
2022-08-23T17:23:46.000Z,4.0235
2022-08-23T17:24:16.000Z,1.7703400000000002
2022-08-23T17:24:46.000Z,2.09222
2022-08-23T17:25:19.000Z,2.89692
2022-08-23T17:25:43.000Z,2.89692
2022-08-23T17:26:06.000Z,6.11572
2022-08-23T17:26:41.000Z,2.89692
2022-08-23T17:27:11.000Z,2.09222
2022-08-23T17:27:56.000Z,1.12658
2022-08-23T17:28:19.000Z,2.09222
2022-08-23T17:28:46.000Z,2.89692
2022-08-23T17:29:19.000Z,1.12658
2022-08-23T17:29:43.000Z,0.32188
2022-08-23T17:30:11.000Z,2.09222
2022-08-23T17:30:51.000Z,1.44846
2022-08-23T17:31:14.000Z,1.12658
2022-08-23T17:31:43.000Z,2.09222
2022-08-23T17:32:19.000Z,1.7703400000000002
2022-08-23T17:32:43.000Z,1.7703400000000002
2022-08-23T17:33:28.000Z,4.98914
2022-08-23T17:33:52.000Z,2.89692
2022-08-23T17:34:26.000Z,0.64376
2022-08-23T17:34:49.000Z,2.89692
2022-08-23T17:35:11.000Z,2.09222
2022-08-23T17:35:46.000Z,1.44846
2022-08-23T17:36:16.000Z,3.5406800000000005
2022-08-23T17:36:46.000Z,3.5406800000000005
2022-08-23T17:37:21.000Z,2.57504
2022-08-23T17:37:43.000Z,2.89692
2022-08-23T17:38:06.000Z,1.44846
2022-08-23T17:38:41.000Z,0.0
2022-08-23T17:39:11.000Z,3.5406800000000005
2022-08-23T17:39:46.000Z,0.32188
2022-08-23T17:40:16.000Z,1.44846
2022-08-23T17:40:46.000Z,1.12658
2022-08-23T17:41:19.000Z,2.09222
2022-08-23T17:41:43.000Z,2.09222
2022-08-23T17:42:06.000Z,1.12658
2022-08-23T17:42:37.000Z,0.0
2022-08-23T17:43:02.000Z,0.0
2022-08-23T17:43:27.000Z,0.0
2022-08-23T17:43:56.000Z,0.0
2022-08-23T17:44:26.000Z,0.0
2022-08-23T17:44:56.000Z,1.7703400000000002
2022-08-23T17:45:21.000Z,0.32188
2022-08-23T17:45:46.000Z,0.0
2022-08-23T17:46:09.000Z,0.0
2022-08-23T17:46:37.000Z,0.0
2022-08-23T17:47:02.000Z,0.0
2022-08-23T17:47:27.000Z,0.0
2022-08-23T17:47:47.000Z,0.32188
2022-08-23T17:48:16.000Z,0.64376
2022-08-23T17:48:46.000Z,0.0
2022-08-23T17:49:19.000Z,0.0
2022-08-23T17:49:43.000Z,0.0
2022-08-23T17:50:06.000Z,0.0
2022-08-23T17:50:41.000Z,0.0
2022-08-23T17:51:11.000Z,0.0
2022-08-23T17:51:41.000Z,0.0
2022-08-23T17:52:01.000Z,0.0
2022-08-23T17:52:31.000Z,0.0
2022-08-23T17:52:46.000Z,0.0
2022-08-23T17:53:19.000Z,0.0
2022-08-23T17:53:43.000Z,0.64376
2022-08-23T17:54:06.000Z,0.0
2022-08-23T17:54:41.000Z,0.32188
2022-08-23T17:55:12.000Z,0.0
2022-08-23T17:55:56.000Z,1.12658
2022-08-23T17:56:19.000Z,1.7703400000000002
2022-08-23T17:56:46.000Z,1.7703400000000002
2022-08-23T17:57:19.000Z,1.44846
2022-08-23T17:57:43.000Z,0.32188
2022-08-23T17:58:11.000Z,0.0
2022-08-23T17:58:51.000Z,0.0
2022-08-23T17:59:14.000Z,0.0
2022-08-23T17:59:43.000Z,1.44846
2022-08-23T18:00:19.000Z,0.0
2022-08-23T18:00:43.000Z,0.0
2022-08-23T18:01:28.000Z,0.0
2022-08-23T18:01:52.000Z,0.0
2022-08-23T18:02:26.000Z,0.0
2022-08-23T18:02:49.000Z,0.0
2022-08-23T18:03:11.000Z,0.0
2022-08-23T18:03:46.000Z,0.0
2022-08-23T18:04:16.000Z,0.0
2022-08-23T18:04:46.000Z,0.0
2022-08-23T18:05:19.000Z,0.0
2022-08-23T18:05:43.000Z,0.0
2022-08-23T18:06:06.000Z,0.32188
2022-08-23T18:06:42.000Z,3.5406800000000005
2022-08-23T18:07:11.000Z,2.09222
2022-08-23T18:07:46.000Z,1.7703400000000002
2022-08-23T18:08:17.000Z,1.7703400000000002
2022-08-23T18:08:46.000Z,0.32188
2022-08-23T18:09:19.000Z,0.0
2022-08-23T18:09:43.000Z,0.0
2022-08-23T18:10:06.000Z,0.0
2022-08-23T18:10:42.000Z,0.0
2022-08-23T18:11:11.000Z,0.0
2022-08-23T18:11:46.000Z,0.0
2022-08-23T18:12:26.000Z,0.0
2022-08-23T18:12:56.000Z,0.0
2022-08-23T18:13:21.000Z,0.0
2022-08-23T18:13:43.000Z,0.0
2022-08-23T18:14:06.000Z,0.0
2022-08-23T18:14:41.000Z,0.0
2022-08-23T18:15:12.000Z,0.0
2022-08-23T18:15:46.000Z,1.44846
2022-08-23T18:16:16.000Z,0.0
2022-08-23T18:16:46.000Z,0.32188
2022-08-23T18:17:19.000Z,0.0
2022-08-23T18:17:43.000Z,0.32188
2022-08-23T18:18:41.000Z,0.0
2022-08-23T18:19:11.000Z,0.0
2022-08-23T18:19:44.000Z,0.0
2022-08-23T18:20:16.000Z,0.0
2022-08-23T18:20:47.000Z,0.0
2022-08-23T18:21:19.000Z,1.12658
2022-08-23T18:21:46.000Z,0.0
2022-08-23T18:22:09.000Z,0.0
2022-08-23T18:22:37.000Z,1.44846
2022-08-23T18:23:02.000Z,1.12658
2022-08-23T18:23:27.000Z,1.12658
2022-08-23T18:23:56.000Z,0.32188
2022-08-23T18:24:19.000Z,0.0
2022-08-23T18:24:46.000Z,0.0
2022-08-23T18:25:19.000Z,0.0
2022-08-23T18:25:43.000Z,0.0
2022-08-23T18:26:06.000Z,0.0
2022-08-23T18:26:41.000Z,0.0
2022-08-23T18:27:11.000Z,0.0
2022-08-23T18:27:46.000Z,0.0
2022-08-23T18:28:16.000Z,0.32188
2022-08-23T18:28:46.000Z,0.0
2022-08-23T18:29:19.000Z,0.0
2022-08-23T18:29:43.000Z,1.44846
2022-08-23T18:30:06.000Z,0.0
2022-08-23T18:30:42.000Z,0.0
2022-08-23T18:31:11.000Z,0.0
2022-08-23T18:31:46.000Z,0.0
2022-08-23T18:32:17.000Z,0.0
2022-08-23T18:32:46.000Z,0.0
2022-08-23T18:33:19.000Z,0.0
2022-08-23T18:33:43.000Z,0.0
2022-08-23T18:34:06.000Z,0.0
2022-08-23T18:34:41.000Z,0.0
2022-08-23T18:35:11.000Z,0.0
2022-08-23T18:35:46.000Z,0.0